TimeCDT,TemperatureF,Dew PointF,Humidity,Sea Level PressureIn,VisibilityMPH,Wind Direction,Wind SpeedMPH,Gust SpeedMPH,PrecipitationIn,Events,Conditions,WindDirDegrees,DateUTC
12:56 AM,61.0,46.0,58,30.09,10.0,North,8.1,-,N/A,,Clear,350,2013-05-13 05:56:00
1:56 AM,59.0,44.1,58,30.09,10.0,North,5.8,-,N/A,,Clear,360,2013-05-13 06:56:00
2:56 AM,55.9,43.0,62,30.10,10.0,North,6.9,-,N/A,,Clear,360,2013-05-13 07:56:00
3:56 AM,55.0,42.1,62,30.12,10.0,North,6.9,-,N/A,,Clear,350,2013-05-13 08:56:00
4:56 AM,51.1,42.1,71,30.13,10.0,North,4.6,-,N/A,,Clear,350,2013-05-13 09:56:00
5:56 AM,51.1,41.0,68,30.16,10.0,North,5.8,-,N/A,,Clear,360,2013-05-13 10:56:00
6:56 AM,54.0,42.1,64,30.19,10.0,North,5.8,-,N/A,,Clear,360,2013-05-13 11:56:00
7:56 AM,60.1,42.1,51,30.22,10.0,North,9.2,-,N/A,,Clear,10,2013-05-13 12:56:00
8:56 AM,64.9,41.0,42,30.22,10.0,NNE,8.1,-,N/A,,Clear,30,2013-05-13 13:56:00
9:56 AM,70.0,39.0,32,30.22,10.0,North,10.4,-,N/A,,Clear,10,2013-05-13 14:56:00
10:56 AM,71.1,37.0,29,30.23,10.0,North,10.4,18.4,N/A,,Clear,350,2013-05-13 15:56:00
11:56 AM,72.0,37.0,28,30.22,10.0,North,9.2,17.3,N/A,,Clear,350,2013-05-13 16:56:00
12:56 PM,73.9,37.0,26,30.21,10.0,NNW,10.4,-,N/A,,Clear,340,2013-05-13 17:56:00
1:56 PM,75.9,39.9,27,30.18,8.0,North,9.2,-,N/A,,Mostly Cloudy,360,2013-05-13 18:56:00
3:56 PM,78.1,39.0,25,30.15,10.0,North,15.0,20.7,N/A,,Clear,350,2013-05-13 20:56:00
4:56 PM,77.0,39.0,25,30.15,10.0,NNE,10.4,-,N/A,,Clear,20,2013-05-13 21:56:00
5:56 PM,75.9,39.9,27,30.14,10.0,North,12.7,-,N/A,,Clear,350,2013-05-13 22:56:00
6:56 PM,73.9,41.0,30,30.14,10.0,North,6.9,-,N/A,,Clear,360,2013-05-13 23:56:00
7:56 PM,68.0,43.0,40,30.16,10.0,North,4.6,-,N/A,,Clear,360,2013-05-14 00:56:00
8:56 PM,61.0,46.9,60,30.17,10.0,NNW,3.5,-,N/A,,Clear,330,2013-05-14 01:56:00
9:56 PM,57.0,46.9,69,30.17,10.0,NNW,3.5,-,N/A,,Clear,340,2013-05-14 02:56:00
10:56 PM,55.0,48.0,77,30.18,10.0,Calm,Calm,-,N/A,,Clear,0,2013-05-14 03:56:00
11:56 PM,53.1,48.0,83,30.18,10.0,Calm,Calm,-,N/A,,Clear,0,2013-05-14 04:56:00